Culemborg, Netherlands
Current Conditions -  °F | °C
As of 4:25 PM on Saturday 25 Oct 2014 (Local Time) from EHDL Reporting Station
Haze Haze  
Wind Chill: 57°   Ceiling: 1100
Heat Index: 57°   Visibility: 3mi
Dew Point: 55°   Wind: 8mph
Humidity: 94%   Direction: 200°SSW
Pressure: 30.06"   Gusts: NA
Location:  51.96°N, 5.23°E
Report Text: EHDL 251425Z AUTO 20007KT 5000 BR FEW008 SCT009 BKN011 14/13 Q1018 GRN
Loading
Personal Weather Stations






























Interactive Weather Map
Tropical Storm Tracking
New forecast layout! Learn more

10-Day Weather Forecast

Advertisements
Track Severe Weather on mobile